Data for 11/20/2006

Time Sea-Level Adjusted Pressure Absolute Pressure Temperature Relative Humidity Dew Point   
(mb) (inHg) (mb) (inHg) (C) (F) (%) (C) (F)
00:05 1018 30.06 847 25.01 6.7 44.1 40 -6 21.2
00:10 1017 30.03 847 25.01 6.8 44.2 40 -5.9 21.3
00:15 1017 30.03 847 25.01 6.7 44.1 40 -5.8 21.5
00:20 1017 30.03 847 25.01 6.6 43.9 41 -5.7 21.8
00:25 1017 30.03 847 25.01 6.2 43.2 43 -5.5 22.1
00:30 1017 30.03 847 25.01 5.6 42 44 -5.7 21.8
00:35 1017 30.03 847 25.01 5.6 42.1 44 -5.8 21.5
00:40 1017 30.03 847 25.01 5.7 42.2 44 -5.5 22
00:45 1018 30.06 847 25.01 5.8 42.4 43 -5.9 21.4
00:50 1018 30.06 847 25.01 6.2 43.2 42 -5.7 21.7
00:55 1017 30.03 847 25.01 5.9 42.6 45 -5.2 22.6
01:00 1017 30.03 847 25.01 5.9 42.6 43 -5.8 21.6
01:05 1017 30.03 847 25.01 6.4 43.5 42 -5.7 21.7
01:10 1018 30.06 847 25.01 6.1 43 46 -4.6 23.8
01:15 1018 30.06 847 25.01 5.8 42.4 42 -6.2 20.8
01:20 1017 30.03 847 25.01 5.8 42.5 46 -4.9 23.1
01:25 1017 30.03 847 25.01 5.3 41.5 44 -5.8 21.5
01:30 1018 30.06 847 25.01 5.7 42.3 46 -4.9 23.1
01:35 1017 30.03 847 25.01 6.5 43.7 40 -6 21.2
01:40 1017 30.03 846 24.98 5.7 42.2 47 -4.7 23.5
01:45 1017 30.03 846 24.98 5.7 42.3 48 -4.5 24
01:50 1017 30.03 846 24.98 4.6 40.3 49 -5.2 22.6
01:55 1017 30.03 846 24.98 4.7 40.5 49 -5 23
02:00 1017 30.03 846 24.98 4.3 39.8 50 -5.3 22.5
02:05 1017 30.03 847 25.01 4.3 39.8 51 -5.1 22.9
02:10 1017 30.03 847 25.01 4.2 39.6 50 -5.2 22.6
02:15 1017 30.03 847 25.01 4.1 39.3 51 -5.2 22.7
02:20 1017 30.03 847 25.01 4.6 40.3 50 -5.1 22.9
02:25 1017 30.03 846 24.98 4.4 39.9 52 -4.7 23.6
02:30 1017 30.03 846 24.98 4.1 39.4 52 -4.8 23.4
02:35 1017 30.03 846 24.98 4.4 39.9 50 -5.1 22.9
02:40 1017 30.03 846 24.98 4.6 40.2 52 -4.5 23.8
02:45 1017 30.03 846 24.98 4.4 39.9 52 -4.7 23.6
02:50 1017 30.03 846 24.98 4.1 39.3 53 -4.6 23.8
02:55 1017 30.03 846 24.98 4.4 39.9 50 -5.2 22.7
03:00 1017 30.03 846 24.98 4.4 39.9 52 -4.7 23.6
03:05 1017 30.03 846 24.98 4.5 40.2 52 -4.5 23.8
03:10 1017 30.03 846 24.98 4.5 40.1 52 -4.6 23.7
03:15 1017 30.03 846 24.98 4.2 39.6 52 -4.7 23.5
03:20 1017 30.03 846 24.98 4.7 40.4 50 -4.9 23.2
03:25 1017 30.03 846 24.98 5.3 41.6 48 -4.7 23.5
03:30 1017 30.03 846 24.98 4.7 40.5 49 -5.2 22.6
03:35 1017 30.03 846 24.98 5.2 41.4 51 -4 24.8
03:40 1017 30.03 846 24.98 3.9 39 55 -4.3 24.3
03:45 1017 30.03 846 24.98 3.6 38.4 56 -4.5 24
03:50 1017 30.03 846 24.98 3.9 39 53 -4.7 23.5
03:55 1017 30.03 846 24.98 4.3 39.8 52 -4.5 23.8
04:00 1017 30.03 846 24.98 4.3 39.8 52 -4.7 23.5
04:05 1017 30.03 846 24.98 4.8 40.6 51 -4.4 24
04:10 1017 30.03 846 24.98 4.3 39.8 54 -4.1 24.6
04:15 1017 30.03 846 24.98 4 39.3 54 -4.3 24.2
04:20 1017 30.03 846 24.98 4.1 39.4 53 -4.5 23.9
04:25 1017 30.03 846 24.98 4.5 40 53 -4.3 24.3
04:30 1017 30.03 846 24.98 5.3 41.6 48 -4.9 23.1
04:35 1017 30.03 846 24.98 5.6 42 47 -4.8 23.4
04:40 1017 30.03 846 24.98 6.1 42.9 49 -3.9 25
04:45 1017 30.03 846 24.98 5.6 42.1 52 -3.6 25.6
04:50 1017 30.03 846 24.98 6 42.8 49 -4 24.8
04:55 1017 30.03 846 24.98 5.4 41.7 52 -3.6 25.4
05:00 1017 30.03 846 24.98 5.7 42.2 52 -3.4 25.8
05:05 1017 30.03 846 24.98 4.8 40.7 53 -3.8 25.1
05:10 1017 30.03 846 24.98 4.7 40.5 58 -2.9 26.7
05:15 1017 30.03 846 24.98 4.2 39.5 56 -3.9 25
05:20 1017 30.03 846 24.98 5.3 41.5 54 -3.3 26
05:25 1017 30.03 846 24.98 4.6 40.2 57 -3.3 26.1
05:30 1017 30.03 846 24.98 4 39.3 59 -3.2 26.3
05:35 1017 30.03 846 24.98 4.9 40.9 49 -4.9 23.2
05:40 1017 30.03 846 24.98 6 42.8 50 -3.6 25.5
05:45 1017 30.03 846 24.98 5.6 42 54 -3 26.6
05:50 1017 30.03 846 24.98 5.4 41.8 48 -4.7 23.5
05:55 1017 30.03 846 24.98 6.7 44.1 49 -3.3 26
06:00 1017 30.03 846 24.98 6.4 43.5 45 -4.6 23.7
06:05 1017 30.03 846 24.98 7 44.5 50 -2.8 27
06:10 1017 30.03 846 24.98 6.1 43 48 -4.2 24.5
06:15 1017 30.03 846 24.98 6.2 43.1 52 -2.9 26.8
06:20 1017 30.03 846 24.98 5.8 42.5 48 -4.3 24.3
06:25 1017 30.03 846 24.98 6.4 43.5 51 -2.9 26.7
06:30 1017 30.03 846 24.98 5.7 42.3 48 -4.3 24.2
06:35 1017 30.03 846 24.98 6.3 43.3 52 -2.8 27
06:40 1017 30.03 846 24.98 5.7 42.2 52 -3.5 25.7
06:45 1017 30.03 846 24.98 5.5 41.9 54 -3.1 26.5
06:50 1017 30.03 846 24.98 4.5 40.1 60 -2.5 27.4
06:55 1017 30.03 846 24.98 4.5 40.1 54 -4 24.8
07:00 1017 30.03 846 24.98 4.8 40.6 57 -3 26.5
07:05 1017 30.03 846 24.98 6 42.7 52 -3.2 26.3
07:10 1017 30.03 846 24.98 5.7 42.2 50 -4 24.7
07:15 1017 30.03 846 24.98 5.8 42.4 52 -3.4 25.8
07:20 1017 30.03 846 24.98 5.8 42.5 55 -2.4 27.6
07:25 1017 30.03 846 24.98 5.1 41.1 53 -3.6 25.4
07:30 1016 30 846 24.98 5 40.9 53 -3.8 25.2
07:35 1016 30 846 24.98 5.3 41.6 55 -2.9 26.8
07:40 1016 30 846 24.98 4.9 40.9 55 -3.3 26.1
07:45 1016 30 846 24.98 4.8 40.7 56 -3.2 26.3
07:50 1017 30.03 846 24.98 4.8 40.7 57 -2.9 26.7
07:55 1017 30.03 846 24.98 5.3 41.5 53 -3.4 25.9
08:00 1017 30.03 846 24.98 5.5 41.9 53 -3.3 26
08:05 1017 30.03 846 24.98 5.7 42.2 52 -3.4 25.8
08:10 1017 30.03 846 24.98 5.3 41.6 54 -3.1 26.3
08:15 1017 30.03 846 24.98 5.1 41.1 56 -3 26.6
08:20 1017 30.03 846 24.98 4.8 40.6 57 -3 26.6
08:25 1017 30.03 846 24.98 5.1 41.1 55 -3.1 26.4
08:30 1017 30.03 846 24.98 5 41 57 -2.7 27.2
08:35 1017 30.03 846 24.98 5.1 41.2 54 -3.5 25.7
08:40 1017 30.03 846 24.98 6.2 43.1 51 -3.1 26.4
08:45 1017 30.03 846 24.98 5.6 42.2 55 -2.7 27.2
08:50 1017 30.03 846 24.98 6.2 43.2 53 -2.8 27
08:55 1017 30.03 846 24.98 5.8 42.5 55 -2.6 27.3
09:00 1017 30.03 846 24.98 5.3 41.5 58 -2.2 28.1
09:05 1017 30.03 846 24.98 5 41.1 56 -3 26.6
09:10 1017 30.03 846 24.98 5.4 41.7 57 -2.4 27.7
09:15 1017 30.03 846 24.98 5.3 41.6 56 -2.7 27.1
09:20 1017 30.03 846 24.98 5.5 41.9 56 -2.5 27.5
09:25 1017 30.03 846 24.98 5.5 41.8 54 -3 26.6
09:30 1017 30.03 846 24.98 6.2 43.2 49 -3.6 25.5
09:35 1017 30.03 846 24.98 6.7 44.1 49 -3.3 26
09:40 1017 30.03 846 24.98 6.9 44.4 49 -3.1 26.4
09:45 1017 30.03 846 24.98 7 44.5 47 -3.6 25.5
09:50 1017 30.03 846 24.98 7.3 45.1 48 -3.1 26.5
09:55 1017 30.03 846 24.98 7.2 45 49 -2.8 27
10:00 1017 30.03 846 24.98 7.2 45 49 -2.8 27
10:05 1017 30.03 846 24.98 7.4 45.3 47 -3 26.5
10:10 1017 30.03 846 24.98 7.7 45.8 49 -2.5 27.6
10:15 1017 30.03 846 24.98 7.9 46.2 49 -2.1 28.3
10:20 1017 30.03 846 24.98 7.6 45.7 50 -2 28.4
10:25 1017 30.03 846 24.98 7.6 45.6 46 -3.2 26.3
10:30 1017 30.03 846 24.98 7.9 46.1 49 -2.1 28.3
10:35 1017 30.03 846 24.98 7.4 45.3 53 -1.5 29.2
10:40 1017 30.03 846 24.98 7.1 44.7 49 -2.8 27
10:45 1017 30.03 846 24.98 7.5 45.4 51 -1.9 28.5
10:50 1017 30.03 847 25.01 7.5 45.5 46 -3.2 26.2
10:55 1017 30.03 847 25.01 7.9 46.2 46 -3 26.7
11:00 1017 30.03 846 24.98 8.5 47.2 43 -3.5 25.6
11:05 1017 30.03 846 24.98 8.9 48 45 -2.5 27.4
11:10 1017 30.03 846 24.98 8.7 47.6 49 -1.3 29.6
11:15 1017 30.03 846 24.98 7.8 46 54 -0.9 30.5
11:20 1017 30.03 846 24.98 7.3 45.2 52 -1.9 28.6
11:25 1017 30.03 846 24.98 7.7 45.9 49 -2.2 28
11:30 1017 30.03 846 24.98 7.9 46.2 49 -2.1 28.1
11:35 1017 30.03 846 24.98 7.9 46.3 46 -3.1 26.5
11:40 1017 30.03 846 24.98 8.4 47 43 -3.4 25.9
11:45 1017 30.03 846 24.98 8.8 47.9 39 -4.3 24.3
11:50 1017 30.03 846 24.98 9.3 48.7 39 -4.1 24.6
11:55 1017 30.03 846 24.98 9.3 48.8 39 -3.8 25.2
12:00 1017 30.03 846 24.98 9.2 48.6 40 -3.8 25.2
12:05 1017 30.03 846 24.98 8.7 47.7 48 -1.6 29.1
12:10 1017 30.03 846 24.98 8.4 47 46 -2.5 27.4
12:15 1017 30.03 846 24.98 8.5 47.3 45 -2.7 27.1
12:20 1017 30.03 846 24.98 8.8 47.8 43 -3.2 26.3
12:25 1016 30 846 24.98 9.2 48.5 41 -3.4 25.9
12:30 1016 30 846 24.98 9.5 49.1 40 -3.4 25.9
12:35 1016 30 846 24.98 9.6 49.3 40 -3.2 26.2
12:40 1016 30 846 24.98 9.8 49.6 40 -3.2 26.3
12:45 1016 30 846 24.98 9.8 49.6 39 -3.6 25.6
12:50 1016 30 846 24.98 9.8 49.7 39 -3.5 25.7
12:55 1016 30 846 24.98 9.8 49.6 39 -3.5 25.7
13:00 1016 30 846 24.98 9.9 49.8 39 -3.4 25.9
13:05 1016 30 846 24.98 9.9 49.8 40 -2.9 26.7
13:10 1016 30 845 24.95 9.7 49.5 42 -2.7 27.2
13:15 1016 30 845 24.95 9.6 49.3 40 -3.3 26.1
13:20 1016 30 845 24.95 9.7 49.4 41 -3 26.6
13:25 1016 30 845 24.95 9.8 49.6 39 -3.4 25.9
13:30 1016 30 845 24.95 9.6 49.3 40 -3.3 26.1
13:35 1016 30 845 24.95 9.8 49.6 38 -3.8 25.2
13:40 1016 30 845 24.95 10 49.9 39 -3.4 25.9
13:45 1016 30 845 24.95 9.8 49.6 39 -3.4 25.9
13:50 1016 30 845 24.95 9.8 49.6 39 -3.5 25.7
13:55 1016 30 845 24.95 10 50 38 -3.5 25.6
14:00 1016 30 845 24.95 10 49.9 40 -3.1 26.4
14:05 1016 30 845 24.95 9.9 49.8 39 -3.5 25.7
14:10 1016 30 845 24.95 10 50 38 -3.6 25.5
14:15 1016 30 845 24.95 10.1 50.1 38 -3.5 25.7
14:20 1016 30 845 24.95 10.2 50.4 37 -3.8 25.2
14:25 1016 30 845 24.95 10.4 50.6 35 -4.3 24.2
14:30 1016 30 845 24.95 10.6 51.1 36 -3.8 25.2
14:35 1016 30 845 24.95 10.5 50.9 37 -3.6 25.6
14:40 1016 30 845 24.95 10.7 51.2 37 -3.5 25.7
14:45 1016 30 845 24.95 11.1 52 34 -4 24.8
14:50 1016 30 845 24.95 11.4 52.4 35 -3.4 25.8
14:55 1016 30 845 24.95 11.6 52.9 35 -3.4 26
15:00 1016 30 845 24.95 11.8 53.2 35 -3.1 26.4
15:05 1016 30 845 24.95 12.1 53.7 34 -3.2 26.3
15:10 1016 30 846 24.98 12.2 53.9 34 -3.1 26.3
15:15 1016 30 846 24.98 12.2 53.9 35 -2.9 26.7
15:20 1016 30 846 24.98 12.1 53.8 35 -3 26.6
15:25 1017 30.03 846 24.98 12 53.6 35 -3 26.5
15:30 1017 30.03 846 24.98 11.9 53.5 35 -3.1 26.5
15:35 1017 30.03 846 24.98 11.9 53.3 35 -2.9 26.7
15:40 1017 30.03 846 24.98 11.7 53.1 36 -2.6 27.2
15:45 1017 30.03 846 24.98 11.5 52.8 37 -2.6 27.3
15:50 1017 30.03 846 24.98 11.7 53 36 -3 26.7
15:55 1017 30.03 846 24.98 11.9 53.5 35 -3.2 26.3
16:00 1017 30.03 846 24.98 12.2 54 35 -2.9 26.8
16:05 1017 30.03 846 24.98 12.1 53.7 35 -3 26.6
16:10 1017 30.03 846 24.98 12 53.7 34 -3.2 26.3
16:15 1017 30.03 846 24.98 12.1 53.8 34 -3.1 26.3
16:20 1017 30.03 846 24.98 12.2 54 34 -3.1 26.4
16:25 1017 30.03 846 24.98 12.2 54 34 -3.3 26
16:30 1017 30.03 846 24.98 12.4 54.4 33 -3.5 25.6
16:35 1017 30.03 846 24.98 12.6 54.6 33 -3.3 26
16:40 1016 30 846 24.98 12.4 54.3 33 -3.5 25.8
16:45 1016 30 846 24.98 12.3 54.2 33 -3.5 25.6
16:50 1016 30 846 24.98 12.3 54.2 33 -3.5 25.6
16:55 1016 30 846 24.98 12.1 53.8 35 -3 26.6
17:00 1016 30 846 24.98 11.4 52.6 39 -1.9 28.6
17:05 1016 30 846 24.98 10.4 50.7 41 -2.3 27.8
17:10 1016 30 846 24.98 10.1 50.2 42 -2.3 27.9
17:15 1016 30 846 24.98 10 50.1 41 -2.7 27.1
17:20 1017 30.03 846 24.98 10.1 50.3 41 -2.5 27.5
17:25 1016 30 846 24.98 10.3 50.5 38 -3.3 26.1
17:30 1016 30 846 24.98 10.3 50.5 41 -2.4 27.7
17:35 1016 30 846 24.98 10.2 50.3 38 -3.5 25.7
17:40 1016 30 846 24.98 10.7 51.3 37 -3.4 25.9
17:45 1016 30 846 24.98 11 51.7 36 -3.6 25.6
17:50 1016 30 846 24.98 10.9 51.7 37 -3.1 26.4
17:55 1016 30 846 24.98 10.6 51.1 38 -2.9 26.8
18:00 1017 30.03 846 24.98 10.6 51.1 39 -2.8 27
18:05 1017 30.03 846 24.98 10.4 50.8 36 -4.1 24.6
18:10 1017 30.03 846 24.98 10.7 51.2 38 -3.2 26.2
18:15 1017 30.03 846 24.98 10.3 50.5 39 -3.1 26.4
18:20 1017 30.03 846 24.98 10.5 50.9 35 -4.4 24
18:25 1017 30.03 846 24.98 10.9 51.6 36 -3.5 25.7
18:30 1017 30.03 846 24.98 10.4 50.7 38 -3.3 26.1
18:35 1017 30.03 846 24.98 10 50 38 -3.4 25.8
18:40 1017 30.03 846 24.98 9.8 49.7 38 -3.7 25.4
18:45 1017 30.03 846 24.98 10 50 38 -3.6 25.6
18:50 1017 30.03 846 24.98 10 49.9 39 -3.4 25.8
18:55 1017 30.03 846 24.98 9.8 49.6 38 -4 24.8
19:00 1017 30.03 846 24.98 10.1 50.2 40 -3 26.6
19:05 1017 30.03 846 24.98 8.9 48.1 41 -3.7 25.3
19:10 1017 30.03 846 24.98 10 50 35 -4.6 23.6
19:15 1017 30.03 846 24.98 10.5 50.9 35 -4.1 24.6
19:20 1017 30.03 846 24.98 10.7 51.2 36 -3.8 25.1
19:25 1017 30.03 846 24.98 10.6 51.2 36 -4 24.9
19:30 1017 30.03 846 24.98 10.8 51.4 35 -4.1 24.6
19:35 1017 30.03 846 24.98 11.3 52.4 34 -4.1 24.6
19:40 1017 30.03 846 24.98 11.5 52.6 34 -3.7 25.3
19:45 1017 30.03 846 24.98 11.1 52 33 -4.5 23.9
19:50 1017 30.03 846 24.98 11.6 52.8 33 -4 24.7
19:55 1017 30.03 846 24.98 11.3 52.4 33 -4.3 24.3
20:00 1017 30.03 846 24.98 11.2 52.2 34 -3.9 25.1
20:05 1017 30.03 846 24.98 11.1 52 33 -4.5 23.9
20:10 1017 30.03 846 24.98 11.4 52.5 33 -4.2 24.4
20:15 1017 30.03 846 24.98 10.4 50.7 36 -3.8 25.1
20:20 1017 30.03 846 24.98 10.2 50.3 35 -4.4 24
20:25 1017 30.03 846 24.98 10.4 50.8 35 -4.2 24.5
20:30 1017 30.03 846 24.98 10.5 50.8 35 -4.5 24
20:35 1017 30.03 846 24.98 10.9 51.6 34 -4.1 24.6
20:40 1017 30.03 846 24.98 10.5 50.8 34 -4.6 23.6
20:45 1017 30.03 846 24.98 10.6 51.1 36 -4 24.8
20:50 1017 30.03 846 24.98 10.2 50.3 34 -4.8 23.4
20:55 1017 30.03 846 24.98 10.7 51.3 34 -4.5 23.8
21:00 1017 30.03 846 24.98 10.7 51.2 35 -4.1 24.6
21:05 1017 30.03 846 24.98 10.3 50.5 34 -4.9 23.1
21:10 1017 30.03 846 24.98 10.3 50.5 38 -3.5 25.7
21:15 1017 30.03 846 24.98 9.2 48.5 41 -3.4 25.8
21:20 1017 30.03 846 24.98 8.6 47.4 40 -4.4 24.1
21:25 1017 30.03 846 24.98 9.6 49.2 38 -3.9 25
21:30 1017 30.03 846 24.98 8.5 47.3 43 -3.4 25.8
21:35 1017 30.03 846 24.98 7.4 45.4 45 -3.8 25.2
21:40 1017 30.03 846 24.98 7.3 45.2 45 -3.7 25.4
21:45 1017 30.03 846 24.98 6.7 44.1 47 -3.8 25.2
21:50 1017 30.03 846 24.98 6.4 43.5 49 -3.6 25.5
21:55 1017 30.03 846 24.98 6.5 43.7 48 -3.7 25.4
22:00 1017 30.03 846 24.98 6 42.7 51 -3.3 26
22:05 1017 30.03 846 24.98 5.8 42.4 51 -3.5 25.8
22:10 1017 30.03 846 24.98 5.6 42.1 53 -3.2 26.2
22:15 1017 30.03 846 24.98 5.5 41.9 52 -3.6 25.5
22:20 1017 30.03 846 24.98 5.9 42.5 51 -3.5 25.7
22:25 1017 30.03 846 24.98 6 42.9 51 -3.4 25.8
22:30 1017 30.03 846 24.98 6.2 43.1 49 -3.7 25.4
22:35 1017 30.03 846 24.98 6.4 43.6 49 -3.5 25.7
22:40 1017 30.03 846 24.98 6.2 43.2 50 -3.5 25.6
22:45 1017 30.03 846 24.98 6 42.9 51 -3.4 26
22:50 1017 30.03 847 25.01 5.8 42.5 51 -3.5 25.6
22:55 1017 30.03 846 24.98 6.1 42.9 50 -3.6 25.6
23:00 1017 30.03 846 24.98 6.3 43.4 49 -3.7 25.4
23:05 1017 30.03 846 24.98 6.5 43.6 49 -3.6 25.6
23:10 1017 30.03 846 24.98 6.7 44 48 -3.4 25.8
23:15 1017 30.03 846 24.98 6.5 43.6 50 -3.3 26.1
23:20 1017 30.03 846 24.98 6.1 42.9 51 -3.3 26
23:25 1017 30.03 846 24.98 5.8 42.4 52 -3.4 25.9
23:30 1017 30.03 846 24.98 5.8 42.5 51 -3.4 25.9
23:35 1017 30.03 846 24.98 5.6 42 53 -3.3 26
23:40 1017 30.03 846 24.98 5.5 41.9 53 -3.4 25.9
23:45 1017 30.03 846 24.98 5.5 41.8 53 -3.4 26
23:50 1017 30.03 846 24.98 5.5 41.8 53 -3.4 25.9
23:55 1017 30.03 846 24.98 5.6 42.1 53 -3.3 26.1
24:00 1017 30.03 846 24.98 5.7 42.2 53 -3.3 26.1